KSQL/SQL METAR and TAF weather

Enter ICAO airport designator
Station Type Date Time Source
KSQL METAR 2021/09/16 21:47 UTC NOAA

KSQL 162147Z 27014G25KT 10SM CLR 19/12 A2985


Station Type Date Time Source
KSQL Decoded METAR 2021/09/16 21:47 UTC NOAA

San Carlos Airport, CA, United States (KSQL) 37-31N 122-15W
Sep 16, 2021 - 05:47 PM EDT / 2021.09.16 2147 UTC
Wind: from the W (270 degrees) at 16 MPH (14 KT) gusting to 29 MPH (25 KT):0
Visibility: 10 mile(s):0
Sky conditions: clear
Temperature: 66 F (19 C)
Dew Point: 53 F (12 C)
Relative Humidity: 63%
Pressure (altimeter): 29.85 in. Hg (1010 hPa)
ob: KSQL 162147Z 27014G25KT 10SM CLR 19/12 A2985
cycle: 22

Station Type Date Time Source
KSQL TAF UTC NOAA

Error!

Example: see airport list